PGT2DK LTAU-LTFJ
Flight info
| Callsign | PGT2DK |
|---|---|
| Flight time | N/A |
| Altitude | 38000 |
| Route | KISLA1C/25 KISLA UA17 BELSU UL605 AVCES DCT NEGBU UT329 TOKER TOKER1G |
| Aircraft | A21N/M-SDE2E3FGHIRWXY/LB1 |
Departure
| Time | 2026-04-30 14:41 |
|---|---|
| Airport | Kayseri Erkilet International Airport (LTAU) |
Arrival
| Time | N/A |
|---|---|
| Airport | Istanbul Sabiha Gökçen International Airport (LTFJ) |
| Time | Latitude | Longitude | Altitude | Speed | Heading |
|---|---|---|---|---|---|
| 2026-04-30 14:06 | 38.76654 | 35.48639 | 3498 ft | 0 kts | 166° |
| 2026-04-30 14:28 | 38.76658 | 35.48638 | 3471 ft | 2 kts | 165° |
| 2026-04-30 14:28 | 38.76674 | 35.48632 | 3469 ft | 2 kts | 162° |
| 2026-04-30 14:28 | 38.76690 | 35.48624 | 3470 ft | 2 kts | 156° |
| 2026-04-30 14:28 | 38.76704 | 35.48614 | 3469 ft | 2 kts | 142° |
| 2026-04-30 14:29 | 38.76717 | 35.48579 | 3468 ft | 2 kts | 81° |
| 2026-04-30 14:29 | 38.76716 | 35.48572 | 3468 ft | 0 kts | 78° |
| 2026-04-30 14:35 | 38.76717 | 35.48577 | 3468 ft | 3 kts | 78° |
| 2026-04-30 14:35 | 38.76742 | 35.48637 | 3470 ft | 7 kts | 18° |
| 2026-04-30 14:35 | 38.76796 | 35.48630 | 3470 ft | 10 kts | 348° |
| 2026-04-30 14:36 | 38.76878 | 35.48606 | 3470 ft | 15 kts | 347° |
| 2026-04-30 14:36 | 38.76980 | 35.48580 | 3469 ft | 12 kts | 7° |
| 2026-04-30 14:36 | 38.77020 | 35.48685 | 3466 ft | 17 kts | 77° |
| 2026-04-30 14:36 | 38.77050 | 35.48847 | 3469 ft | 20 kts | 76° |
| 2026-04-30 14:37 | 38.77086 | 35.49035 | 3472 ft | 24 kts | 76° |
| 2026-04-30 14:37 | 38.77128 | 35.49256 | 3473 ft | 27 kts | 76° |
| 2026-04-30 14:37 | 38.77175 | 35.49501 | 3470 ft | 29 kts | 76° |
| 2026-04-30 14:37 | 38.77222 | 35.49746 | 3467 ft | 28 kts | 76° |
| 2026-04-30 14:38 | 38.77269 | 35.49998 | 3464 ft | 29 kts | 76° |
| 2026-04-30 14:38 | 38.77317 | 35.50246 | 3465 ft | 28 kts | 76° |
| 2026-04-30 14:38 | 38.77352 | 35.50431 | 3469 ft | 16 kts | 76° |
| 2026-04-30 14:38 | 38.77377 | 35.50563 | 3470 ft | 16 kts | 76° |
| 2026-04-30 14:39 | 38.77407 | 35.50723 | 3469 ft | 20 kts | 76° |
| 2026-04-30 14:39 | 38.77438 | 35.50886 | 3471 ft | 18 kts | 76° |
| 2026-04-30 14:39 | 38.77468 | 35.51042 | 3473 ft | 18 kts | 77° |
| 2026-04-30 14:40 | 38.77443 | 35.51181 | 3472 ft | 5 kts | 168° |
| 2026-04-30 14:40 | 38.77402 | 35.51192 | 3471 ft | 9 kts | 168° |
| 2026-04-30 14:40 | 38.77352 | 35.51158 | 3471 ft | 8 kts | 248° |
| 2026-04-30 14:40 | 38.77329 | 35.51039 | 3473 ft | 32 kts | 256° |
| 2026-04-30 14:41 | 38.77227 | 35.50502 | 3468 ft | 92 kts | 256° |
| 2026-04-30 14:41 | 38.77024 | 35.49438 | 3472 ft | 152 kts | 256° |
| 2026-04-30 14:41 | 38.76756 | 35.48009 | 3786 ft | 166 kts | 263° |
| 2026-04-30 14:41 | 38.76532 | 35.46542 | 4353 ft | 172 kts | 258° |
| 2026-04-30 14:42 | 38.76264 | 35.45033 | 4923 ft | 174 kts | 258° |
| 2026-04-30 14:42 | 38.75989 | 35.43528 | 5533 ft | 180 kts | 259° |
| 2026-04-30 14:42 | 38.75688 | 35.41858 | 5893 ft | 204 kts | 259° |
| 2026-04-30 14:42 | 38.75436 | 35.39970 | 6206 ft | 226 kts | 269° |
| 2026-04-30 14:43 | 38.75782 | 35.37907 | 6424 ft | 255 kts | 300° |
| 2026-04-30 14:43 | 38.77099 | 35.36301 | 6927 ft | 271 kts | 328° |
| 2026-04-30 14:43 | 38.78801 | 35.35232 | 7807 ft | 274 kts | 333° |
| 2026-04-30 14:43 | 38.80580 | 35.34230 | 8650 ft | 282 kts | 334° |
| 2026-04-30 14:44 | 38.82398 | 35.33200 | 9530 ft | 287 kts | 333° |
| 2026-04-30 14:44 | 38.84209 | 35.32057 | 10346 ft | 295 kts | 329° |
| 2026-04-30 14:44 | 38.86047 | 35.30686 | 10709 ft | 317 kts | 325° |
| 2026-04-30 14:44 | 38.87920 | 35.29010 | 11030 ft | 338 kts | 320° |
| 2026-04-30 14:45 | 38.89765 | 35.27037 | 11589 ft | 350 kts | 315° |
| 2026-04-30 14:45 | 38.91509 | 35.24821 | 12348 ft | 356 kts | 310° |
| 2026-04-30 14:45 | 38.93115 | 35.22395 | 13208 ft | 357 kts | 305° |
| 2026-04-30 14:45 | 38.94562 | 35.19778 | 14010 ft | 360 kts | 300° |
| 2026-04-30 14:46 | 38.95826 | 35.16993 | 14745 ft | 362 kts | 295° |
| 2026-04-30 14:46 | 38.96560 | 35.15059 | 15248 ft | 363 kts | 292° |
| 2026-04-30 14:46 | 38.97499 | 35.12035 | 15999 ft | 365 kts | 287° |
| 2026-04-30 14:46 | 38.98230 | 35.08893 | 16739 ft | 367 kts | 282° |
| 2026-04-30 14:47 | 38.98813 | 35.05698 | 17449 ft | 370 kts | 281° |
| 2026-04-30 14:47 | 38.99368 | 35.02453 | 18170 ft | 373 kts | 281° |
| 2026-04-30 14:47 | 38.99924 | 34.99167 | 18780 ft | 377 kts | 281° |
| 2026-04-30 14:47 | 39.00485 | 34.95865 | 19420 ft | 378 kts | 281° |
| 2026-04-30 14:48 | 39.01048 | 34.92554 | 20014 ft | 381 kts | 281° |
| 2026-04-30 14:48 | 39.01618 | 34.89205 | 20577 ft | 385 kts | 281° |
| 2026-04-30 14:48 | 39.02194 | 34.85826 | 21144 ft | 388 kts | 281° |
| 2026-04-30 14:48 | 39.02777 | 34.82396 | 21704 ft | 391 kts | 281° |
| 2026-04-30 14:49 | 39.03360 | 34.78959 | 22271 ft | 394 kts | 281° |
| 2026-04-30 14:49 | 39.03939 | 34.75543 | 22816 ft | 397 kts | 281° |
| 2026-04-30 14:49 | 39.04530 | 34.72053 | 23386 ft | 400 kts | 281° |
| 2026-04-30 14:49 | 39.05121 | 34.68551 | 23852 ft | 403 kts | 281° |
| 2026-04-30 14:50 | 39.06319 | 34.61438 | 24694 ft | 409 kts | 281° |
| 2026-04-30 14:50 | 39.06920 | 34.57855 | 25122 ft | 411 kts | 281° |
| 2026-04-30 14:51 | 39.08129 | 34.50632 | 25967 ft | 415 kts | 281° |
| 2026-04-30 14:51 | 39.08738 | 34.46981 | 26348 ft | 418 kts | 281° |
| 2026-04-30 14:51 | 39.09958 | 34.39648 | 27188 ft | 421 kts | 281° |
| 2026-04-30 14:52 | 39.10587 | 34.35959 | 27554 ft | 423 kts | 283° |
| 2026-04-30 14:52 | 39.13023 | 34.28864 | 28237 ft | 434 kts | 302° |
| 2026-04-30 14:52 | 39.15004 | 34.25449 | 28671 ft | 436 kts | 306° |
| 2026-04-30 14:53 | 39.18917 | 34.19420 | 29764 ft | 431 kts | 307° |
| 2026-04-30 14:53 | 39.20868 | 34.16496 | 30289 ft | 428 kts | 307° |
| 2026-04-30 14:54 | 39.24721 | 34.10665 | 31040 ft | 426 kts | 307° |
| 2026-04-30 14:54 | 39.28534 | 34.04799 | 31856 ft | 421 kts | 306° |
| 2026-04-30 14:55 | 39.32278 | 33.98984 | 32468 ft | 421 kts | 306° |
| 2026-04-30 14:55 | 39.34146 | 33.96082 | 32808 ft | 419 kts | 306° |
| 2026-04-30 14:55 | 39.37872 | 33.90313 | 33519 ft | 416 kts | 306° |
| 2026-04-30 14:56 | 39.41572 | 33.84586 | 34086 ft | 414 kts | 306° |
| 2026-04-30 14:56 | 39.45260 | 33.78863 | 34546 ft | 414 kts | 306° |
| 2026-04-30 14:57 | 39.47088 | 33.75984 | 34747 ft | 413 kts | 305° |
| 2026-04-30 14:57 | 39.50693 | 33.70199 | 35160 ft | 413 kts | 305° |
| 2026-04-30 14:58 | 39.54254 | 33.64366 | 35577 ft | 411 kts | 301° |
| 2026-04-30 14:58 | 39.55758 | 33.61246 | 35755 ft | 408 kts | 295° |
| 2026-04-30 14:58 | 39.58360 | 33.54721 | 36108 ft | 407 kts | 293° |
| 2026-04-30 14:59 | 39.60824 | 33.48121 | 36435 ft | 406 kts | 292° |
| 2026-04-30 15:00 | 39.64480 | 33.38219 | 36939 ft | 405 kts | 292° |
| 2026-04-30 15:00 | 39.66925 | 33.31623 | 37217 ft | 405 kts | 292° |
| 2026-04-30 15:01 | 39.69369 | 33.25026 | 37474 ft | 405 kts | 292° |
| 2026-04-30 15:01 | 39.73035 | 33.15112 | 37911 ft | 405 kts | 292° |
| 2026-04-30 15:02 | 39.75454 | 33.08553 | 38011 ft | 405 kts | 292° |
| 2026-04-30 15:03 | 39.81512 | 32.92059 | 38009 ft | 404 kts | 292° |
| 2026-04-30 15:04 | 39.87147 | 32.76629 | 38005 ft | 403 kts | 292° |
| 2026-04-30 15:06 | 39.93144 | 32.60119 | 38000 ft | 403 kts | 292° |
| 2026-04-30 15:07 | 39.97915 | 32.46917 | 37993 ft | 402 kts | 292° |
| 2026-04-30 15:08 | 40.02099 | 32.33449 | 38001 ft | 399 kts | 283° |
| 2026-04-30 15:09 | 40.05530 | 32.15955 | 37982 ft | 398 kts | 282° |
| 2026-04-30 15:10 | 40.08213 | 32.01987 | 37976 ft | 398 kts | 282° |
| 2026-04-30 15:11 | 40.12226 | 31.80905 | 37972 ft | 398 kts | 282° |
| 2026-04-30 15:13 | 40.15541 | 31.63314 | 37968 ft | 399 kts | 282° |
| 2026-04-30 15:14 | 40.20135 | 31.38672 | 36303 ft | 405 kts | 282° |
| 2026-04-30 15:16 | 40.23430 | 31.20808 | 33128 ft | 397 kts | 282° |
| 2026-04-30 15:17 | 40.25978 | 31.06875 | 30742 ft | 389 kts | 282° |
| 2026-04-30 15:18 | 40.29076 | 30.89794 | 28090 ft | 378 kts | 282° |
| 2026-04-30 15:19 | 40.30801 | 30.80217 | 27235 ft | 354 kts | 282° |